createdAt,value
2015-07-08T00:00:10.052Z,39
2015-07-08T00:00:28.554Z,39
2015-07-08T00:00:46.975Z,38
2015-07-08T00:01:05.491Z,38
2015-07-08T00:01:23.977Z,39
2015-07-08T00:01:42.462Z,39
2015-07-08T00:02:00.884Z,39
2015-07-08T00:02:19.339Z,39
2015-07-08T00:02:37.761Z,39
2015-07-08T00:02:56.261Z,39
2015-07-08T00:03:14.715Z,39
2015-07-08T00:03:33.371Z,38
2015-07-08T00:03:51.746Z,38
2015-07-08T00:04:10.230Z,38
2015-07-08T00:04:28.796Z,38
2015-07-08T00:04:47.171Z,39
2015-07-08T00:05:05.577Z,39
2015-07-08T00:05:23.953Z,39
2015-07-08T00:05:42.375Z,39
2015-07-08T00:06:00.750Z,39
2015-07-08T00:06:19.283Z,38
2015-07-08T00:06:37.674Z,38
2015-07-08T00:06:56.127Z,38
2015-07-08T00:07:14.705Z,38
2015-07-08T00:07:33.130Z,38
2015-07-08T00:07:51.521Z,37
2015-07-08T00:08:10.114Z,37
2015-07-08T00:08:28.601Z,37
2015-07-08T00:08:46.491Z,37
2015-07-08T00:09:04.929Z,37
2015-07-08T00:09:23.305Z,37
2015-07-08T00:09:41.680Z,38
2015-07-08T00:10:00.164Z,38
2015-07-08T00:10:18.899Z,38
2015-07-08T00:10:37.479Z,38
2015-07-08T00:10:56.182Z,38
2015-07-08T00:11:14.682Z,38
2015-07-08T00:11:33.044Z,39
2015-07-08T00:11:51.451Z,43
2015-07-08T00:12:09.826Z,45
2015-07-08T00:12:28.437Z,46
2015-07-08T00:12:46.812Z,47
2015-07-08T00:13:05.515Z,47
2015-07-08T00:13:23.890Z,52
2015-07-08T00:13:42.470Z,59
2015-07-08T00:14:00.876Z,67
2015-07-08T00:14:19.330Z,69
2015-07-08T00:14:37.785Z,69
2015-07-08T00:14:56.207Z,72
2015-07-08T00:15:14.691Z,73
2015-07-08T00:15:33.238Z,74
2015-07-08T00:15:51.693Z,74
2015-07-08T00:16:10.177Z,74
2015-07-08T00:16:28.552Z,74
2015-07-08T00:16:46.961Z,75
2015-07-08T00:17:05.476Z,75
2015-07-08T00:17:23.929Z,75
2015-07-08T00:17:42.431Z,75
2015-07-08T00:18:01.041Z,75
2015-07-08T00:18:19.416Z,75
2015-07-08T00:18:37.963Z,76
2015-07-08T00:18:56.418Z,76
2015-07-08T00:19:15.027Z,76
2015-07-08T00:19:33.652Z,76
2015-07-08T00:19:52.028Z,76
2015-07-08T00:20:10.559Z,76
2015-07-08T00:20:29.012Z,76
2015-07-08T00:20:47.422Z,77
2015-07-08T00:21:05.890Z,77
2015-07-08T00:21:24.437Z,76
2015-07-08T00:21:42.953Z,76
2015-07-08T00:22:01.533Z,75
2015-07-08T00:22:19.939Z,75
2015-07-08T00:22:38.330Z,75
2015-07-08T00:22:56.800Z,75
2015-07-08T00:23:15.175Z,75
2015-07-08T00:23:33.675Z,75
2015-07-08T00:23:52.115Z,75
2015-07-08T00:24:10.584Z,74
2015-07-08T00:24:29.240Z,72
2015-07-08T00:24:47.693Z,73
2015-07-08T00:25:06.257Z,73
2015-07-08T00:25:24.726Z,74
2015-07-08T00:25:43.116Z,72
2015-07-08T00:26:01.604Z,72
2015-07-08T00:26:20.057Z,72
2015-07-08T00:26:38.541Z,73
2015-07-08T00:26:56.933Z,73
2015-07-08T00:27:15.401Z,73
2015-07-08T00:27:33.933Z,72
2015-07-08T00:27:52.403Z,72
2015-07-08T00:28:10.919Z,71
2015-07-08T00:28:29.419Z,71
2015-07-08T00:28:47.888Z,71
2015-07-08T00:29:06.280Z,68
2015-07-08T00:29:24.687Z,68
2015-07-08T00:29:43.202Z,68
2015-07-08T00:30:01.704Z,69
2015-07-08T00:30:20.157Z,68
2015-07-08T00:30:38.532Z,68
2015-07-08T00:30:57.034Z,68
2015-07-08T00:31:15.441Z,68
2015-07-08T00:31:33.972Z,70
2015-07-08T00:31:52.363Z,67
2015-07-08T00:32:10.786Z,70
2015-07-08T00:32:29.271Z,69
2015-07-08T00:32:47.833Z,70
2015-07-08T00:33:06.210Z,69
2015-07-08T00:33:24.663Z,70
2015-07-08T00:33:43.101Z,70
2015-07-08T00:34:01.540Z,70
2015-07-08T00:34:19.915Z,70
2015-07-08T00:34:38.337Z,71
2015-07-08T00:34:56.712Z,71
2015-07-08T00:35:15.199Z,71
2015-07-08T00:35:33.636Z,71
2015-07-08T00:35:52.058Z,69
2015-07-08T00:36:10.513Z,71
2015-07-08T00:36:28.966Z,71
2015-07-08T00:36:47.404Z,69
2015-07-08T00:37:05.810Z,71
2015-07-08T00:37:24.296Z,71
2015-07-08T00:37:42.078Z,69
2015-07-08T00:38:00.578Z,71
2015-07-08T00:38:19.173Z,68
2015-07-08T00:38:37.595Z,68
2015-07-08T00:38:55.970Z,67
2015-07-08T00:39:14.392Z,67
2015-07-08T00:39:32.785Z,67
2015-07-08T00:39:51.207Z,73
2015-07-08T00:40:09.738Z,74
2015-07-08T00:40:28.287Z,73
2015-07-08T00:40:46.756Z,73
2015-07-08T00:41:05.256Z,70
2015-07-08T00:41:23.677Z,70
2015-07-08T00:41:42.258Z,70
2015-07-08T00:42:00.742Z,70
2015-07-08T00:42:19.242Z,70
2015-07-08T00:42:37.838Z,70
2015-07-08T00:42:56.510Z,70
2015-07-08T00:43:15.010Z,70
2015-07-08T00:43:33.605Z,70
2015-07-08T00:43:52.012Z,70
2015-07-08T00:44:10.527Z,73
2015-07-08T00:44:28.904Z,70
2015-07-08T00:44:47.295Z,70
2015-07-08T00:45:06.014Z,70
2015-07-08T00:45:24.607Z,70
2015-07-08T00:45:43.016Z,70
2015-07-08T00:46:01.422Z,70
2015-07-08T00:46:19.828Z,70
2015-07-08T00:46:38.236Z,70
2015-07-08T00:46:56.643Z,70
2015-07-08T00:47:15.049Z,70
2015-07-08T00:47:33.582Z,70
2015-07-08T00:47:52.035Z,70
2015-07-08T00:48:10.457Z,70
2015-07-08T00:48:28.910Z,70
2015-07-08T00:48:47.350Z,70
2015-07-08T00:49:05.787Z,70
2015-07-08T00:49:24.381Z,70
2015-07-08T00:49:42.820Z,70
2015-07-08T00:50:01.352Z,70
2015-07-08T00:50:19.836Z,70
2015-07-08T00:50:38.306Z,70
2015-07-08T00:50:56.728Z,70
2015-07-08T00:51:15.150Z,70
2015-07-08T00:51:33.606Z,70
2015-07-08T00:51:52.090Z,70
2015-07-08T00:52:10.465Z,70
2015-07-08T00:52:28.840Z,70
2015-07-08T00:52:47.389Z,70
2015-07-08T00:53:06.108Z,70
2015-07-08T00:53:24.467Z,70
2015-07-08T00:53:42.952Z,70
2015-07-08T00:54:01.343Z,70
2015-07-08T00:54:19.812Z,70
2015-07-08T00:54:38.346Z,70
2015-07-08T00:54:56.721Z,70
2015-07-08T00:55:15.096Z,70
2015-07-08T00:55:33.580Z,70
2015-07-08T00:55:52.050Z,70
2015-07-08T00:56:10.472Z,70
2015-07-08T00:56:28.941Z,70
2015-07-08T00:56:47.365Z,70
2015-07-08T00:57:05.740Z,70
2015-07-08T00:57:24.271Z,70
2015-07-08T00:57:42.882Z,70
2015-07-08T00:58:01.273Z,70
2015-07-08T00:58:19.710Z,70
2015-07-08T00:58:38.117Z,70
2015-07-08T00:58:56.525Z,70
2015-07-08T00:59:15.025Z,70
2015-07-08T00:59:33.462Z,70
2015-07-08T00:59:51.934Z,70
2015-07-08T01:00:10.559Z,70
2015-07-08T01:00:29.012Z,70
2015-07-08T01:00:47.450Z,70
2015-07-08T01:01:06.155Z,70
2015-07-08T01:01:24.592Z,70
2015-07-08T01:01:43.061Z,70
2015-07-08T01:02:01.453Z,70
2015-07-08T01:02:19.984Z,70
2015-07-08T01:02:38.375Z,70
2015-07-08T01:02:56.859Z,70
2015-07-08T01:03:15.253Z,70
2015-07-08T01:03:33.675Z,70
2015-07-08T01:03:52.081Z,70
2015-07-08T01:04:10.458Z,70
2015-07-08T01:04:28.911Z,70
2015-07-08T01:04:47.333Z,70
2015-07-08T01:05:05.755Z,70
2015-07-08T01:05:24.132Z,70
2015-07-08T01:05:42.710Z,70
2015-07-08T01:06:01.147Z,70
2015-07-08T01:06:19.618Z,70
2015-07-08T01:06:38.102Z,70
2015-07-08T01:06:56.477Z,70
2015-07-08T01:07:14.854Z,70
2015-07-08T01:07:33.401Z,70
2015-07-08T01:07:51.854Z,70
2015-07-08T01:08:10.370Z,70
2015-07-08T01:08:28.856Z,70
2015-07-08T01:08:47.466Z,70
2015-07-08T01:09:05.966Z,70
2015-07-08T01:09:24.405Z,70
2015-07-08T01:09:42.905Z,70
2015-07-08T01:10:01.374Z,70
2015-07-08T01:10:19.954Z,70
2015-07-08T01:10:38.689Z,70
2015-07-08T01:10:57.126Z,70
2015-07-08T01:11:15.532Z,70
2015-07-08T01:11:33.986Z,70
2015-07-08T01:11:52.377Z,70
2015-07-08T01:12:10.861Z,70
2015-07-08T01:12:29.443Z,70
2015-07-08T01:12:48.130Z,70
2015-07-08T01:13:06.505Z,70
2015-07-08T01:13:24.882Z,70
2015-07-08T01:13:43.366Z,70
2015-07-08T01:14:01.757Z,70
2015-07-08T01:14:20.180Z,70
2015-07-08T01:14:38.602Z,70
2015-07-08T01:14:56.977Z,70
2015-07-08T01:15:15.461Z,70
2015-07-08T01:15:33.839Z,70
2015-07-08T01:15:52.230Z,70
2015-07-08T01:16:10.667Z,70
2015-07-08T01:16:29.121Z,70
2015-07-08T01:16:47.840Z,70
2015-07-08T01:17:06.293Z,70
2015-07-08T01:17:24.702Z,70
2015-07-08T01:17:43.108Z,70
2015-07-08T01:18:01.623Z,70
2015-07-08T01:18:20.092Z,70
2015-07-08T01:18:38.594Z,70
2015-07-08T01:18:56.985Z,70
2015-07-08T01:19:15.469Z,70
2015-07-08T01:19:33.862Z,70
2015-07-08T01:19:52.299Z,70
2015-07-08T01:20:10.846Z,70
2015-07-08T01:20:29.302Z,70
2015-07-08T01:20:47.693Z,70
2015-07-08T01:21:06.193Z,70
2015-07-08T01:21:24.771Z,70
2015-07-08T01:21:43.241Z,70
2015-07-08T01:22:01.725Z,70
2015-07-08T01:22:20.381Z,70
2015-07-08T01:22:38.915Z,70
2015-07-08T01:22:57.383Z,70
2015-07-08T01:23:15.868Z,70
2015-07-08T01:23:34.276Z,70
2015-07-08T01:23:52.760Z,70
2015-07-08T01:24:11.120Z,70
2015-07-08T01:24:30.135Z,70
2015-07-08T01:24:48.591Z,70
2015-07-08T01:25:07.122Z,70
2015-07-08T01:25:25.575Z,70
2015-07-08T01:25:44.061Z,70
2015-07-08T01:26:02.499Z,70
2015-07-08T01:26:21.139Z,70
2015-07-08T01:26:39.593Z,70
2015-07-08T01:26:57.985Z,70
2015-07-08T01:27:16.423Z,70
2015-07-08T01:27:34.876Z,70
2015-07-08T01:27:53.268Z,70
2015-07-08T01:28:11.831Z,70
2015-07-08T01:28:30.206Z,70
2015-07-08T01:28:48.597Z,70
2015-07-08T01:29:06.974Z,70
2015-07-08T01:29:25.395Z,70
2015-07-08T01:29:44.005Z,70
2015-07-08T01:30:02.538Z,70
2015-07-08T01:30:21.038Z,70
2015-07-08T01:30:39.429Z,70
2015-07-08T01:30:57.978Z,70
2015-07-08T01:31:16.524Z,70
2015-07-08T01:31:34.946Z,70
2015-07-08T01:31:53.464Z,70
2015-07-08T01:32:11.964Z,70
2015-07-08T01:32:30.417Z,70
2015-07-08T01:32:48.823Z,70
2015-07-08T01:33:07.232Z,70
2015-07-08T01:33:25.685Z,70
2015-07-08T01:33:44.138Z,70
2015-07-08T01:34:02.593Z,70
2015-07-08T01:34:21.202Z,70
2015-07-08T01:34:39.796Z,70
2015-07-08T01:34:58.204Z,70
2015-07-08T01:35:16.611Z,70
2015-07-08T01:35:35.126Z,70
2015-07-08T01:35:53.720Z,70
2015-07-08T01:36:12.081Z,70
2015-07-08T01:36:30.566Z,70
2015-07-08T01:36:49.050Z,68
2015-07-08T01:37:07.473Z,68
2015-07-08T01:37:26.004Z,70
2015-07-08T01:37:44.567Z,70
2015-07-08T01:38:03.023Z,70
2015-07-08T01:38:21.538Z,70
2015-07-08T01:38:40.007Z,70
2015-07-08T01:38:58.634Z,70
2015-07-08T01:39:17.103Z,70
2015-07-08T01:39:35.556Z,70
2015-07-08T01:39:53.994Z,70
2015-07-08T01:40:12.558Z,70
2015-07-08T01:40:31.011Z,70
2015-07-08T01:40:49.605Z,70
2015-07-08T01:41:08.169Z,68
2015-07-08T01:41:26.607Z,70
2015-07-08T01:41:45.091Z,70
2015-07-08T01:42:03.530Z,70
2015-07-08T01:42:22.045Z,70
2015-07-08T01:42:40.624Z,70
2015-07-08T01:42:59.170Z,70
2015-07-08T01:43:17.782Z,70
2015-07-08T01:43:36.266Z,68
2015-07-08T01:43:54.657Z,68
2015-07-08T01:44:13.097Z,70
2015-07-08T01:44:31.504Z,70
2015-07-08T01:44:49.863Z,68
2015-07-08T01:45:07.599Z,68
2015-07-08T01:45:26.099Z,68
2015-07-08T01:45:44.521Z,68
2015-07-08T01:46:03.256Z,70
2015-07-08T01:46:21.679Z,70
2015-07-08T01:46:40.195Z,70
2015-07-08T01:46:58.758Z,70
2015-07-08T01:47:17.197Z,70
2015-07-08T01:47:35.885Z,70
2015-07-08T01:47:54.244Z,70
2015-07-08T01:48:12.681Z,70
2015-07-08T01:48:31.229Z,70
2015-07-08T01:48:49.667Z,70
2015-07-08T01:49:07.511Z,70
2015-07-08T01:49:26.107Z,70
2015-07-08T01:49:44.576Z,70
2015-07-08T01:50:03.045Z,70
2015-07-08T01:50:21.685Z,70
2015-07-08T01:50:40.141Z,70
2015-07-08T01:50:58.547Z,70
2015-07-08T01:51:16.937Z,70
2015-07-08T01:51:34.673Z,70
2015-07-08T01:51:53.267Z,70
2015-07-08T01:52:11.642Z,70
2015-07-08T01:52:30.110Z,70
2015-07-08T01:52:48.598Z,70
2015-07-08T01:53:07.051Z,70
2015-07-08T01:53:25.629Z,70
2015-07-08T01:53:44.287Z,70
2015-07-08T01:54:02.818Z,70
2015-07-08T01:54:21.256Z,70
2015-07-08T01:54:39.694Z,70
2015-07-08T01:54:58.163Z,70
2015-07-08T01:55:16.554Z,70
2015-07-08T01:55:35.007Z,70
2015-07-08T01:55:53.619Z,70
2015-07-08T01:56:12.354Z,70
2015-07-08T01:56:30.979Z,70
2015-07-08T01:56:49.589Z,70
2015-07-08T01:57:08.120Z,70
2015-07-08T01:57:26.620Z,70
2015-07-08T01:57:45.045Z,70
2015-07-08T01:58:03.483Z,70
2015-07-08T01:58:21.889Z,70
2015-07-08T01:58:40.326Z,70
2015-07-08T01:58:58.797Z,70
2015-07-08T01:59:17.313Z,70
2015-07-08T01:59:35.672Z,70
2015-07-08T01:59:54.065Z,70
2015-07-08T02:00:12.580Z,70
2015-07-08T02:00:31.159Z,70
2015-07-08T02:00:49.551Z,70
2015-07-08T02:01:08.176Z,70
2015-07-08T02:01:26.645Z,70
2015-07-08T02:01:45.116Z,70
2015-07-08T02:02:03.584Z,70
2015-07-08T02:02:21.975Z,70
2015-07-08T02:02:40.350Z,70
2015-07-08T02:02:58.960Z,70
2015-07-08T02:03:17.460Z,70
2015-07-08T02:03:35.898Z,70
2015-07-08T02:03:54.541Z,70
2015-07-08T02:04:13.025Z,68
2015-07-08T02:04:31.416Z,68
2015-07-08T02:04:49.902Z,70
2015-07-08T02:05:08.511Z,70
2015-07-08T02:05:26.933Z,70
2015-07-08T02:05:45.496Z,70
2015-07-08T02:06:03.888Z,70
2015-07-08T02:06:22.388Z,70
2015-07-08T02:06:40.904Z,70
2015-07-08T02:06:59.500Z,70
2015-07-08T02:07:17.984Z,70
2015-07-08T02:07:36.359Z,70
2015-07-08T02:07:55.127Z,70
2015-07-08T02:08:13.611Z,70
2015-07-08T02:08:32.158Z,70
2015-07-08T02:08:50.736Z,70
2015-07-08T02:09:09.160Z,70
2015-07-08T02:09:27.894Z,70
2015-07-08T02:09:53.303Z,70
2015-07-08T02:10:11.724Z,70
2015-07-08T02:10:30.271Z,70
2015-07-08T02:10:48.865Z,70
2015-07-08T02:11:07.273Z,70
2015-07-08T02:11:25.820Z,70
2015-07-08T02:11:44.273Z,70
2015-07-08T02:12:02.760Z,70
2015-07-08T02:12:20.478Z,68
2015-07-08T02:12:38.947Z,68
2015-07-08T02:12:57.387Z,68
2015-07-08T02:13:15.746Z,68
2015-07-08T02:13:34.199Z,68
2015-07-08T02:13:52.559Z,68
2015-07-08T02:14:11.045Z,68
2015-07-08T02:14:29.748Z,68
2015-07-08T02:14:48.123Z,68
2015-07-08T02:15:06.563Z,68
2015-07-08T02:15:25.094Z,68
2015-07-08T02:15:43.500Z,68
2015-07-08T02:16:01.908Z,68
2015-07-08T02:16:20.440Z,68
2015-07-08T02:16:38.971Z,68
2015-07-08T02:16:57.408Z,68
2015-07-08T02:17:15.832Z,68
2015-07-08T02:17:34.363Z,68
2015-07-08T02:17:53.098Z,68
2015-07-08T02:18:11.552Z,68
2015-07-08T02:18:29.958Z,68
2015-07-08T02:18:48.427Z,68
2015-07-08T02:19:06.866Z,68
2015-07-08T02:19:25.351Z,68
2015-07-08T02:19:43.741Z,68
2015-07-08T02:20:02.244Z,68
2015-07-08T02:20:20.635Z,68
2015-07-08T02:20:39.104Z,68
2015-07-08T02:20:57.526Z,68
2015-07-08T02:21:15.902Z,68
2015-07-08T02:21:34.277Z,68
2015-07-08T02:21:52.933Z,68
2015-07-08T02:22:11.591Z,68
2015-07-08T02:22:30.122Z,68
2015-07-08T02:22:48.544Z,68
2015-07-08T02:23:06.312Z,68
2015-07-08T02:23:24.781Z,68
2015-07-08T02:23:43.187Z,68
2015-07-08T02:24:01.796Z,68
2015-07-08T02:24:20.267Z,68
2015-07-08T02:24:38.673Z,68
2015-07-08T02:24:57.095Z,68
2015-07-08T02:25:15.597Z,68
2015-07-08T02:25:34.128Z,68
2015-07-08T02:25:52.738Z,68
2015-07-08T02:26:11.255Z,68
2015-07-08T02:26:29.912Z,68
2015-07-08T02:26:48.599Z,68
2015-07-08T02:27:07.052Z,68
2015-07-08T02:27:24.836Z,68
2015-07-08T02:27:43.195Z,68
2015-07-08T02:28:01.664Z,68
2015-07-08T02:28:20.042Z,66
2015-07-08T02:28:38.604Z,68
2015-07-08T02:28:57.073Z,66
2015-07-08T02:29:15.557Z,66
2015-07-08T02:29:34.215Z,66
2015-07-08T02:29:52.683Z,66
2015-07-08T02:30:11.183Z,66
2015-07-08T02:30:29.593Z,66
2015-07-08T02:30:48.030Z,66
2015-07-08T02:31:06.577Z,65
2015-07-08T02:31:24.936Z,65
2015-07-08T02:31:43.422Z,65
2015-07-08T02:32:01.844Z,65
2015-07-08T02:32:20.328Z,65
2015-07-08T02:32:38.753Z,65
2015-07-08T02:32:57.143Z,65
2015-07-08T02:33:15.534Z,65
2015-07-08T02:33:34.035Z,64
2015-07-08T02:33:52.426Z,64
2015-07-08T02:34:10.801Z,64
2015-07-08T02:34:29.240Z,64
2015-07-08T02:34:47.646Z,64
2015-07-08T02:35:06.131Z,64
2015-07-08T02:35:24.553Z,63
2015-07-08T02:35:42.977Z,63
2015-07-08T02:36:01.727Z,63
2015-07-08T02:36:20.336Z,63
2015-07-08T02:36:38.557Z,63
2015-07-08T02:36:57.041Z,62
2015-07-08T02:37:15.416Z,62
2015-07-08T02:37:33.856Z,61
2015-07-08T02:37:52.277Z,61
2015-07-08T02:38:10.668Z,62
2015-07-08T02:38:29.199Z,62
2015-07-08T02:38:47.748Z,61
2015-07-08T02:39:06.279Z,61
2015-07-08T02:39:24.123Z,60
2015-07-08T02:39:42.547Z,62
2015-07-08T02:40:01.047Z,60
2015-07-08T02:40:19.422Z,60
2015-07-08T02:40:37.846Z,60
2015-07-08T02:40:56.283Z,60
2015-07-08T02:41:14.658Z,60
2015-07-08T02:41:33.049Z,60
2015-07-08T02:41:51.551Z,60
2015-07-08T02:42:10.114Z,59
2015-07-08T02:42:28.489Z,59
2015-07-08T02:42:46.944Z,59
2015-07-08T02:43:05.428Z,59
2015-07-08T02:43:23.850Z,60
2015-07-08T02:43:42.321Z,59
2015-07-08T02:44:00.930Z,60
2015-07-08T02:44:19.524Z,59
2015-07-08T02:44:38.041Z,60
2015-07-08T02:44:56.635Z,60
2015-07-08T02:45:15.104Z,60
2015-07-08T02:45:33.495Z,60
2015-07-08T02:45:52.028Z,60
2015-07-08T02:46:10.559Z,60
2015-07-08T02:46:37.981Z,60
2015-07-08T02:46:56.342Z,60
2015-07-08T02:47:14.749Z,60
2015-07-08T02:47:33.155Z,60
2015-07-08T02:47:51.532Z,60
2015-07-08T02:48:09.938Z,60
2015-07-08T02:48:28.376Z,60
2015-07-08T02:48:46.970Z,60
2015-07-08T02:49:05.564Z,60
2015-07-08T02:49:23.939Z,60
2015-07-08T02:49:42.439Z,60
2015-07-08T02:50:00.817Z,60
2015-07-08T02:50:19.176Z,60
2015-07-08T02:50:37.676Z,60
2015-07-08T02:50:56.116Z,60
2015-07-08T02:51:14.507Z,60
2015-07-08T02:51:32.897Z,60
2015-07-08T02:51:51.618Z,60
2015-07-08T02:52:10.009Z,60
2015-07-08T02:52:28.571Z,60
2015-07-08T02:52:46.477Z,60
2015-07-08T02:53:04.979Z,60
2015-07-08T02:53:23.495Z,60
2015-07-08T02:53:41.870Z,60
2015-07-08T02:54:00.262Z,60
2015-07-08T02:54:18.699Z,60
2015-07-08T02:54:37.152Z,60
2015-07-08T02:54:55.529Z,60
2015-07-08T02:55:14.029Z,59
2015-07-08T02:55:32.639Z,60
2015-07-08T02:55:51.062Z,60
2015-07-08T02:56:09.469Z,60
2015-07-08T02:56:27.828Z,60
2015-07-08T02:56:46.437Z,60
2015-07-08T02:57:05.252Z,60
2015-07-08T02:57:23.846Z,60
2015-07-08T02:57:42.268Z,60
2015-07-08T02:58:00.817Z,60
2015-07-08T02:58:19.255Z,60
2015-07-08T02:58:37.724Z,60
2015-07-08T02:58:56.115Z,60
2015-07-08T02:59:14.647Z,60
2015-07-08T02:59:33.022Z,60
2015-07-08T02:59:51.443Z,60
2015-07-08T03:00:09.930Z,60
2015-07-08T03:00:28.492Z,60
2015-07-08T03:00:46.914Z,60
2015-07-08T03:01:05.338Z,60
2015-07-08T03:01:23.932Z,60
2015-07-08T03:01:42.416Z,60
2015-07-08T03:02:00.934Z,60
2015-07-08T03:02:19.324Z,60
2015-07-08T03:02:37.762Z,60
2015-07-08T03:02:56.184Z,60
2015-07-08T03:03:14.608Z,61
2015-07-08T03:03:33.061Z,60
2015-07-08T03:03:51.405Z,60
2015-07-08T03:04:09.782Z,60
2015-07-08T03:04:28.157Z,60
2015-07-08T03:04:45.891Z,60
2015-07-08T03:05:04.409Z,60
2015-07-08T03:05:23.002Z,60
2015-07-08T03:05:41.440Z,60
2015-07-08T03:05:59.830Z,61
2015-07-08T03:06:18.301Z,61
2015-07-08T03:06:36.707Z,60
2015-07-08T03:06:55.129Z,60
2015-07-08T03:07:13.694Z,60
2015-07-08T03:07:32.053Z,60
2015-07-08T03:07:50.522Z,60
2015-07-08T03:08:09.022Z,61
2015-07-08T03:08:27.618Z,61
2015-07-08T03:08:46.086Z,61
2015-07-08T03:09:04.477Z,61
2015-07-08T03:09:22.854Z,61
2015-07-08T03:09:41.401Z,61
2015-07-08T03:09:59.979Z,60
2015-07-08T03:10:18.401Z,61
2015-07-08T03:10:36.794Z,60
2015-07-08T03:10:55.153Z,60
2015-07-08T03:11:13.606Z,60
2015-07-08T03:11:31.999Z,60
2015-07-08T03:11:50.405Z,60
2015-07-08T03:12:08.811Z,60
2015-07-08T03:12:27.264Z,60
2015-07-08T03:12:45.641Z,60
2015-07-08T03:13:04.016Z,60
2015-07-08T03:13:22.423Z,60
2015-07-08T03:13:40.956Z,60
2015-07-08T03:13:59.346Z,60
2015-07-08T03:14:17.971Z,60
2015-07-08T03:14:36.333Z,60
2015-07-08T03:14:54.848Z,60
2015-07-08T03:15:13.223Z,60
2015-07-08T03:15:31.600Z,60
2015-07-08T03:15:50.054Z,60
2015-07-08T03:16:08.788Z,60
2015-07-08T03:16:26.725Z,60
2015-07-08T03:16:45.134Z,61
2015-07-08T03:17:03.696Z,61
2015-07-08T03:17:22.368Z,60
2015-07-08T03:17:40.776Z,60
2015-07-08T03:17:59.151Z,60
2015-07-08T03:18:17.792Z,60
2015-07-08T03:18:36.294Z,61
2015-07-08T03:18:54.685Z,61
2015-07-08T03:19:12.966Z,60
2015-07-08T03:19:31.356Z,61
2015-07-08T03:19:50.171Z,60
2015-07-08T03:20:08.702Z,60
2015-07-08T03:20:27.077Z,60
2015-07-08T03:20:45.469Z,60
2015-07-08T03:21:03.906Z,60
2015-07-08T03:21:22.359Z,61
2015-07-08T03:21:40.816Z,61
2015-07-08T03:21:59.253Z,61
2015-07-08T03:22:17.612Z,61
2015-07-08T03:22:36.004Z,60
2015-07-08T03:22:54.395Z,61
2015-07-08T03:23:13.035Z,60
2015-07-08T03:23:31.535Z,60
2015-07-08T03:23:49.913Z,60
2015-07-08T03:24:08.320Z,60
2015-07-08T03:24:26.726Z,60
2015-07-08T03:24:45.227Z,60
2015-07-08T03:25:03.602Z,60
2015-07-08T03:25:22.008Z,60
2015-07-08T03:25:40.527Z,60
2015-07-08T03:25:58.933Z,60
2015-07-08T03:26:17.308Z,60
2015-07-08T03:26:35.808Z,60
2015-07-08T03:26:54.294Z,60
2015-07-08T03:27:12.669Z,61
2015-07-08T03:27:31.169Z,60
2015-07-08T03:27:49.639Z,60
2015-07-08T03:28:08.014Z,60
2015-07-08T03:28:26.452Z,60
2015-07-08T03:28:45.016Z,60
2015-07-08T03:29:03.469Z,60
2015-07-08T03:29:21.891Z,60
2015-07-08T03:29:40.344Z,60
2015-07-08T03:29:58.752Z,60
2015-07-08T03:30:17.206Z,60
2015-07-08T03:30:35.581Z,60
2015-07-08T03:30:53.959Z,60
2015-07-08T03:31:12.334Z,60
2015-07-08T03:31:30.709Z,60
2015-07-08T03:31:49.085Z,60
2015-07-08T03:32:07.569Z,60
2015-07-08T03:32:26.006Z,60
2015-07-08T03:32:44.460Z,60
2015-07-08T03:33:02.853Z,60
2015-07-08T03:33:21.228Z,60
2015-07-08T03:33:39.791Z,60
2015-07-08T03:33:58.198Z,60
2015-07-08T03:34:16.573Z,60
2015-07-08T03:34:35.026Z,60
2015-07-08T03:34:53.510Z,60
2015-07-08T03:35:11.872Z,60
2015-07-08T03:35:30.294Z,59
2015-07-08T03:35:48.794Z,60
2015-07-08T03:36:07.202Z,59
2015-07-08T03:36:25.608Z,59
2015-07-08T03:36:44.061Z,60
2015-07-08T03:37:02.389Z,60
2015-07-08T03:37:20.892Z,60
2015-07-08T03:37:39.361Z,60
2015-07-08T03:37:57.721Z,59
2015-07-08T03:38:16.206Z,59
2015-07-08T03:38:34.800Z,60
2015-07-08T03:38:53.190Z,59
2015-07-08T03:39:11.768Z,60
2015-07-08T03:39:30.662Z,60
2015-07-08T03:39:49.053Z,60
2015-07-08T03:40:07.709Z,60
2015-07-08T03:40:26.069Z,60
2015-07-08T03:40:44.616Z,60
2015-07-08T03:41:03.054Z,60
2015-07-08T03:41:21.446Z,60
2015-07-08T03:41:39.868Z,60
2015-07-08T03:41:58.259Z,60
2015-07-08T03:42:16.745Z,60
2015-07-08T03:42:35.183Z,60
2015-07-08T03:42:53.558Z,60
2015-07-08T03:43:12.042Z,60
2015-07-08T03:43:30.544Z,60
2015-07-08T03:43:49.153Z,60
2015-07-08T03:44:07.544Z,60
2015-07-08T03:44:25.999Z,60
2015-07-08T03:44:44.546Z,60
2015-07-08T03:45:02.968Z,60
2015-07-08T03:45:21.376Z,60
2015-07-08T03:45:39.829Z,60
2015-07-08T03:45:58.267Z,60
2015-07-08T03:46:16.720Z,60
2015-07-08T03:46:35.253Z,60
2015-07-08T03:46:53.613Z,60
2015-07-08T03:47:12.034Z,60
2015-07-08T03:47:30.427Z,59
2015-07-08T03:47:48.849Z,59
2015-07-08T03:48:07.380Z,60
2015-07-08T03:48:25.898Z,59
2015-07-08T03:48:44.554Z,59
2015-07-08T03:49:03.054Z,59
2015-07-08T03:49:21.665Z,60
2015-07-08T03:49:40.025Z,59
2015-07-08T03:49:58.447Z,60
2015-07-08T03:50:16.822Z,60
2015-07-08T03:50:35.355Z,59
2015-07-08T03:50:53.824Z,60
2015-07-08T03:51:12.433Z,60
2015-07-08T03:51:30.919Z,59
2015-07-08T03:51:49.513Z,59
2015-07-08T03:52:08.013Z,60
2015-07-08T03:52:26.468Z,59
2015-07-08T03:52:45.000Z,59
2015-07-08T03:53:03.375Z,59
2015-07-08T03:53:21.765Z,60
2015-07-08T03:53:40.219Z,59
2015-07-08T03:53:58.610Z,59
2015-07-08T03:54:17.016Z,60
2015-07-08T03:54:35.424Z,59
2015-07-08T03:54:53.815Z,59
2015-07-08T03:55:12.253Z,60
2015-07-08T03:55:30.708Z,59
2015-07-08T03:55:49.255Z,59
2015-07-08T03:56:07.692Z,59
2015-07-08T03:56:26.223Z,60
2015-07-08T03:56:44.742Z,60
2015-07-08T03:57:02.726Z,60
2015-07-08T03:57:21.211Z,59
2015-07-08T03:57:39.791Z,59
2015-07-08T03:57:58.400Z,59
2015-07-08T03:58:16.869Z,59
2015-07-08T03:58:35.322Z,59
2015-07-08T03:58:53.710Z,59
2015-07-08T03:59:12.179Z,59
2015-07-08T03:59:30.757Z,59
2015-07-08T03:59:49.221Z,60
2015-07-08T04:00:07.627Z,60
2015-07-08T04:00:26.096Z,60
2015-07-08T04:00:44.706Z,59
2015-07-08T04:01:03.181Z,60
2015-07-08T04:01:21.650Z,60
2015-07-08T04:01:40.009Z,59
2015-07-08T04:01:58.441Z,59
2015-07-08T04:02:16.800Z,59
2015-07-08T04:02:35.300Z,60
2015-07-08T04:02:53.691Z,59
2015-07-08T04:03:12.242Z,59
2015-07-08T04:03:30.633Z,59
2015-07-08T04:03:49.055Z,60
2015-07-08T04:04:07.461Z,59
2015-07-08T04:04:25.836Z,59
2015-07-08T04:04:44.226Z,59
2015-07-08T04:05:02.662Z,59
2015-07-08T04:05:21.178Z,59
2015-07-08T04:05:39.803Z,59
2015-07-08T04:05:58.271Z,59
2015-07-08T04:06:16.786Z,59
2015-07-08T04:06:35.271Z,59
2015-07-08T04:06:53.740Z,59
2015-07-08T04:07:12.161Z,59
2015-07-08T04:07:30.661Z,59
2015-07-08T04:07:49.145Z,59
2015-07-08T04:08:07.845Z,60
2015-07-08T04:08:25.798Z,60
2015-07-08T04:08:44.298Z,59
2015-07-08T04:09:02.813Z,60
2015-07-08T04:09:21.180Z,60
2015-07-08T04:09:39.649Z,59
2015-07-08T04:09:58.227Z,59
2015-07-08T04:10:16.592Z,59
2015-07-08T04:10:35.264Z,60
2015-07-08T04:10:53.795Z,59
2015-07-08T04:11:12.177Z,59
2015-07-08T04:11:30.693Z,59
2015-07-08T04:11:49.177Z,59
2015-07-08T04:12:07.693Z,59
2015-07-08T04:12:26.074Z,59
2015-07-08T04:12:44.433Z,59
2015-07-08T04:13:03.011Z,60
2015-07-08T04:13:20.877Z,60
2015-07-08T04:13:39.283Z,59
2015-07-08T04:13:57.674Z,59
2015-07-08T04:14:16.099Z,59
2015-07-08T04:14:34.599Z,60
2015-07-08T04:14:53.193Z,59
2015-07-08T04:15:11.615Z,60
2015-07-08T04:15:30.009Z,59
2015-07-08T04:15:48.431Z,59
2015-07-08T04:16:06.821Z,59
2015-07-08T04:16:25.325Z,59
2015-07-08T04:16:43.763Z,59
2015-07-08T04:17:02.169Z,59
2015-07-08T04:17:20.547Z,59
2015-07-08T04:17:39.078Z,59
2015-07-08T04:17:57.547Z,59
2015-07-08T04:18:16.003Z,58
2015-07-08T04:18:34.519Z,59
2015-07-08T04:18:53.066Z,59
2015-07-08T04:19:11.566Z,59
2015-07-08T04:19:30.115Z,59
2015-07-08T04:19:48.615Z,58
2015-07-08T04:20:07.069Z,59
2015-07-08T04:20:25.540Z,59
2015-07-08T04:20:43.915Z,59
2015-07-08T04:21:02.493Z,59
2015-07-08T04:21:20.871Z,59
2015-07-08T04:21:39.309Z,58
2015-07-08T04:21:57.746Z,58
2015-07-08T04:22:16.137Z,59
2015-07-08T04:22:34.499Z,58
2015-07-08T04:22:53.031Z,59
2015-07-08T04:23:11.562Z,59
2015-07-08T04:23:30.173Z,59